logo
Search for airport 
image banner adimage banner adimage banner ad
image banner ad

EPXM - Mielno

Located in , Poland

ICAO - , IATA -

Data provided by Airmate  

General information

Coordinates: N54°15'35" E16°3'57"
Elevation is feet MSL.
 
View others Airports in West Pomerania

Operational data

Special qualification required
Current time UTC:
Current local time:
Weather at : EPDA - Darlowo ( 25 km )
TAF: TAF EPDA 241700Z 2418/2506 04005KT CAVOK PROB30 TEMPO 2421/2506 0800 FG BKN003
View NOTAMs / SUP AIP / TFR affecting this airport [VIEW]
Communications frequencies: [VIEW]

Runways:

Airport contact information

Address: Poland

Satellite view of EPXM